sensor_id;sensor_type;location;lat;lon;timestamp;P1;durP1;ratioP1;P2;durP2;ratioP2
33824;SDS011;20127;48.962;8.342;2023-01-23T00:00:11;29.55;;;18.90;;
33824;SDS011;20127;48.962;8.342;2023-01-23T00:03:14;39.58;;;18.20;;
33824;SDS011;20127;48.962;8.342;2023-01-23T00:06:17;29.55;;;19.00;;
33824;SDS011;20127;48.962;8.342;2023-01-23T00:09:19;29.05;;;18.77;;
33824;SDS011;20127;48.962;8.342;2023-01-23T00:12:22;26.95;;;17.70;;
33824;SDS011;20127;48.962;8.342;2023-01-23T00:15:24;34.35;;;19.60;;
33824;SDS011;20127;48.962;8.342;2023-01-23T00:18:27;32.05;;;18.65;;
33824;SDS011;20127;48.962;8.342;2023-01-23T00:21:28;32.83;;;18.55;;
33824;SDS011;20127;48.962;8.342;2023-01-23T00:24:31;29.33;;;18.45;;
33824;SDS011;20127;48.962;8.342;2023-01-23T00:27:34;33.30;;;19.80;;
33824;SDS011;20127;48.962;8.342;2023-01-23T00:30:35;35.15;;;21.15;;
33824;SDS011;20127;48.962;8.342;2023-01-23T00:33:37;34.47;;;19.63;;
33824;SDS011;20127;48.962;8.342;2023-01-23T00:36:40;41.25;;;20.45;;
33824;SDS011;20127;48.962;8.342;2023-01-23T00:39:43;35.03;;;20.55;;
33824;SDS011;20127;48.962;8.342;2023-01-23T00:42:46;36.00;;;20.73;;
33824;SDS011;20127;48.962;8.342;2023-01-23T00:45:48;37.25;;;22.13;;
33824;SDS011;20127;48.962;8.342;2023-01-23T00:48:50;34.30;;;18.65;;
33824;SDS011;20127;48.962;8.342;2023-01-23T00:51:52;37.20;;;20.63;;
33824;SDS011;20127;48.962;8.342;2023-01-23T00:54:55;33.35;;;20.92;;
33824;SDS011;20127;48.962;8.342;2023-01-23T00:57:58;35.50;;;20.50;;
33824;SDS011;20127;48.962;8.342;2023-01-23T01:01:00;45.97;;;24.00;;
33824;SDS011;20127;48.962;8.342;2023-01-23T01:04:02;43.28;;;23.40;;
33824;SDS011;20127;48.962;8.342;2023-01-23T01:07:03;34.42;;;19.55;;
33824;SDS011;20127;48.962;8.342;2023-01-23T01:10:06;37.65;;;19.83;;
33824;SDS011;20127;48.962;8.342;2023-01-23T01:13:10;39.83;;;22.38;;
33824;SDS011;20127;48.962;8.342;2023-01-23T01:16:12;40.33;;;22.63;;
33824;SDS011;20127;48.962;8.342;2023-01-23T01:19:14;41.55;;;21.13;;
33824;SDS011;20127;48.962;8.342;2023-01-23T01:22:17;40.70;;;21.02;;
33824;SDS011;20127;48.962;8.342;2023-01-23T01:25:18;46.60;;;21.25;;
33824;SDS011;20127;48.962;8.342;2023-01-23T01:28:22;44.17;;;19.55;;
33824;SDS011;20127;48.962;8.342;2023-01-23T01:31:25;39.55;;;22.92;;
33824;SDS011;20127;48.962;8.342;2023-01-23T01:34:27;37.05;;;20.70;;
33824;SDS011;20127;48.962;8.342;2023-01-23T01:37:31;43.38;;;21.35;;
33824;SDS011;20127;48.962;8.342;2023-01-23T01:40:34;47.85;;;22.27;;
33824;SDS011;20127;48.962;8.342;2023-01-23T01:43:38;48.60;;;23.77;;
33824;SDS011;20127;48.962;8.342;2023-01-23T01:46:40;43.17;;;22.55;;
33824;SDS011;20127;48.962;8.342;2023-01-23T01:49:41;41.25;;;21.65;;
33824;SDS011;20127;48.962;8.342;2023-01-23T01:52:43;41.40;;;22.65;;
33824;SDS011;20127;48.962;8.342;2023-01-23T01:55:45;41.13;;;21.70;;
33824;SDS011;20127;48.962;8.342;2023-01-23T01:58:49;46.90;;;22.13;;
33824;SDS011;20127;48.962;8.342;2023-01-23T02:01:54;54.63;;;25.88;;
33824;SDS011;20127;48.962;8.342;2023-01-23T02:05:04;41.88;;;21.45;;
33824;SDS011;20127;48.962;8.342;2023-01-23T02:08:10;44.25;;;23.63;;
33824;SDS011;20127;48.962;8.342;2023-01-23T02:11:18;39.13;;;21.15;;
33824;SDS011;20127;48.962;8.342;2023-01-23T02:14:21;41.28;;;22.05;;
33824;SDS011;20127;48.962;8.342;2023-01-23T02:17:24;55.10;;;22.33;;
33824;SDS011;20127;48.962;8.342;2023-01-23T02:20:26;42.65;;;21.23;;
33824;SDS011;20127;48.962;8.342;2023-01-23T02:23:31;44.28;;;23.05;;
33824;SDS011;20127;48.962;8.342;2023-01-23T02:26:44;43.80;;;21.42;;
33824;SDS011;20127;48.962;8.342;2023-01-23T02:29:46;35.88;;;19.55;;
33824;SDS011;20127;48.962;8.342;2023-01-23T02:32:50;32.75;;;17.38;;
33824;SDS011;20127;48.962;8.342;2023-01-23T02:35:52;39.08;;;20.80;;
33824;SDS011;20127;48.962;8.342;2023-01-23T02:38:57;45.90;;;21.63;;
33824;SDS011;20127;48.962;8.342;2023-01-23T02:42:03;42.33;;;21.42;;
33824;SDS011;20127;48.962;8.342;2023-01-23T02:45:06;43.58;;;20.92;;
33824;SDS011;20127;48.962;8.342;2023-01-23T02:48:08;44.85;;;21.75;;
33824;SDS011;20127;48.962;8.342;2023-01-23T02:51:10;46.78;;;22.75;;
33824;SDS011;20127;48.962;8.342;2023-01-23T02:54:12;38.78;;;20.75;;
33824;SDS011;20127;48.962;8.342;2023-01-23T02:57:15;47.55;;;24.67;;
33824;SDS011;20127;48.962;8.342;2023-01-23T03:00:17;43.28;;;21.13;;
33824;SDS011;20127;48.962;8.342;2023-01-23T03:03:19;38.90;;;19.63;;
33824;SDS011;20127;48.962;8.342;2023-01-23T03:06:22;44.63;;;21.80;;
33824;SDS011;20127;48.962;8.342;2023-01-23T03:09:24;46.35;;;23.27;;
33824;SDS011;20127;48.962;8.342;2023-01-23T03:12:27;45.97;;;22.63;;
33824;SDS011;20127;48.962;8.342;2023-01-23T03:15:29;42.88;;;21.20;;
33824;SDS011;20127;48.962;8.342;2023-01-23T03:18:30;45.75;;;20.40;;
33824;SDS011;20127;48.962;8.342;2023-01-23T03:21:33;44.83;;;21.70;;
33824;SDS011;20127;48.962;8.342;2023-01-23T03:24:36;38.53;;;19.23;;
33824;SDS011;20127;48.962;8.342;2023-01-23T03:27:40;40.00;;;19.65;;
33824;SDS011;20127;48.962;8.342;2023-01-23T03:30:41;38.97;;;17.92;;
33824;SDS011;20127;48.962;8.342;2023-01-23T03:33:42;37.72;;;20.98;;
33824;SDS011;20127;48.962;8.342;2023-01-23T03:36:44;38.47;;;16.75;;
33824;SDS011;20127;48.962;8.342;2023-01-23T03:39:45;41.28;;;21.75;;
33824;SDS011;20127;48.962;8.342;2023-01-23T03:43:06;42.22;;;19.67;;
33824;SDS011;20127;48.962;8.342;2023-01-23T03:46:08;52.03;;;20.77;;
33824;SDS011;20127;48.962;8.342;2023-01-23T03:49:10;44.70;;;19.77;;
33824;SDS011;20127;48.962;8.342;2023-01-23T03:52:12;36.53;;;20.10;;
33824;SDS011;20127;48.962;8.342;2023-01-23T03:55:14;38.80;;;18.25;;
33824;SDS011;20127;48.962;8.342;2023-01-23T03:58:17;43.58;;;21.92;;
33824;SDS011;20127;48.962;8.342;2023-01-23T04:01:18;44.50;;;20.50;;
33824;SDS011;20127;48.962;8.342;2023-01-23T04:04:20;41.40;;;25.08;;
33824;SDS011;20127;48.962;8.342;2023-01-23T04:07:22;41.13;;;21.02;;
33824;SDS011;20127;48.962;8.342;2023-01-23T04:10:23;38.42;;;20.00;;
33824;SDS011;20127;48.962;8.342;2023-01-23T04:13:27;38.15;;;18.60;;
33824;SDS011;20127;48.962;8.342;2023-01-23T04:16:29;48.83;;;21.08;;
33824;SDS011;20127;48.962;8.342;2023-01-23T04:19:30;45.67;;;21.83;;
33824;SDS011;20127;48.962;8.342;2023-01-23T04:22:32;40.53;;;18.38;;
33824;SDS011;20127;48.962;8.342;2023-01-23T04:25:34;43.13;;;21.15;;
33824;SDS011;20127;48.962;8.342;2023-01-23T04:28:37;44.83;;;20.05;;
33824;SDS011;20127;48.962;8.342;2023-01-23T04:31:39;37.35;;;17.35;;
33824;SDS011;20127;48.962;8.342;2023-01-23T04:34:40;46.65;;;19.85;;
33824;SDS011;20127;48.962;8.342;2023-01-23T04:37:42;42.63;;;19.10;;
33824;SDS011;20127;48.962;8.342;2023-01-23T04:40:44;50.67;;;22.05;;
33824;SDS011;20127;48.962;8.342;2023-01-23T04:43:49;42.53;;;19.08;;
33824;SDS011;20127;48.962;8.342;2023-01-23T04:46:51;41.78;;;20.83;;
33824;SDS011;20127;48.962;8.342;2023-01-23T04:49:54;43.28;;;18.48;;
33824;SDS011;20127;48.962;8.342;2023-01-23T04:52:55;37.65;;;21.13;;
33824;SDS011;20127;48.962;8.342;2023-01-23T04:55:57;36.90;;;19.05;;
33824;SDS011;20127;48.962;8.342;2023-01-23T04:59:00;45.92;;;20.15;;
33824;SDS011;20127;48.962;8.342;2023-01-23T05:02:02;38.25;;;18.00;;
33824;SDS011;20127;48.962;8.342;2023-01-23T05:05:04;42.80;;;20.50;;
33824;SDS011;20127;48.962;8.342;2023-01-23T05:08:06;40.20;;;19.63;;
33824;SDS011;20127;48.962;8.342;2023-01-23T05:11:08;39.25;;;20.25;;
33824;SDS011;20127;48.962;8.342;2023-01-23T05:14:11;38.13;;;18.02;;
33824;SDS011;20127;48.962;8.342;2023-01-23T05:17:13;41.17;;;18.45;;
33824;SDS011;20127;48.962;8.342;2023-01-23T05:20:15;42.47;;;19.35;;
33824;SDS011;20127;48.962;8.342;2023-01-23T05:23:16;37.45;;;18.80;;
33824;SDS011;20127;48.962;8.342;2023-01-23T05:26:18;49.50;;;18.90;;
33824;SDS011;20127;48.962;8.342;2023-01-23T05:29:21;41.58;;;16.55;;
33824;SDS011;20127;48.962;8.342;2023-01-23T05:32:24;38.67;;;19.77;;
33824;SDS011;20127;48.962;8.342;2023-01-23T05:35:26;63.10;;;19.67;;
33824;SDS011;20127;48.962;8.342;2023-01-23T05:38:27;35.65;;;18.65;;
33824;SDS011;20127;48.962;8.342;2023-01-23T05:41:30;41.97;;;18.88;;
33824;SDS011;20127;48.962;8.342;2023-01-23T05:44:33;42.88;;;17.05;;
33824;SDS011;20127;48.962;8.342;2023-01-23T05:47:34;51.92;;;24.10;;
33824;SDS011;20127;48.962;8.342;2023-01-23T05:50:36;38.53;;;18.63;;
33824;SDS011;20127;48.962;8.342;2023-01-23T05:53:38;43.63;;;19.70;;
33824;SDS011;20127;48.962;8.342;2023-01-23T05:56:40;47.25;;;23.23;;
33824;SDS011;20127;48.962;8.342;2023-01-23T05:59:43;42.95;;;20.27;;
33824;SDS011;20127;48.962;8.342;2023-01-23T06:02:45;31.63;;;16.73;;
33824;SDS011;20127;48.962;8.342;2023-01-23T06:05:47;39.60;;;16.25;;
33824;SDS011;20127;48.962;8.342;2023-01-23T06:08:49;40.90;;;17.35;;
33824;SDS011;20127;48.962;8.342;2023-01-23T06:11:50;35.75;;;17.85;;
33824;SDS011;20127;48.962;8.342;2023-01-23T06:14:53;36.90;;;18.52;;
33824;SDS011;20127;48.962;8.342;2023-01-23T06:17:55;37.47;;;16.27;;
33824;SDS011;20127;48.962;8.342;2023-01-23T06:20:57;36.15;;;17.23;;
33824;SDS011;20127;48.962;8.342;2023-01-23T06:23:59;43.55;;;20.77;;
33824;SDS011;20127;48.962;8.342;2023-01-23T06:27:02;40.13;;;18.15;;
33824;SDS011;20127;48.962;8.342;2023-01-23T06:30:09;44.45;;;20.48;;
33824;SDS011;20127;48.962;8.342;2023-01-23T06:33:11;41.47;;;17.25;;
33824;SDS011;20127;48.962;8.342;2023-01-23T06:36:16;38.60;;;17.33;;
33824;SDS011;20127;48.962;8.342;2023-01-23T06:39:24;40.25;;;18.17;;
33824;SDS011;20127;48.962;8.342;2023-01-23T06:42:29;42.35;;;20.70;;
33824;SDS011;20127;48.962;8.342;2023-01-23T06:45:33;51.08;;;20.35;;
33824;SDS011;20127;48.962;8.342;2023-01-23T06:48:35;41.88;;;17.75;;
33824;SDS011;20127;48.962;8.342;2023-01-23T06:51:37;42.70;;;19.58;;
33824;SDS011;20127;48.962;8.342;2023-01-23T06:57:57;33.53;;;14.27;;
33824;SDS011;20127;48.962;8.342;2023-01-23T07:01:00;44.08;;;19.15;;
33824;SDS011;20127;48.962;8.342;2023-01-23T07:04:09;43.33;;;19.13;;
33824;SDS011;20127;48.962;8.342;2023-01-23T07:10:03;36.38;;;17.25;;
33824;SDS011;20127;48.962;8.342;2023-01-23T07:11:37;36.45;;;18.65;;
33824;SDS011;20127;48.962;8.342;2023-01-23T07:15:20;37.72;;;16.63;;
33824;SDS011;20127;48.962;8.342;2023-01-23T07:18:33;35.15;;;16.35;;
33824;SDS011;20127;48.962;8.342;2023-01-23T07:21:46;38.80;;;19.13;;
33824;SDS011;20127;48.962;8.342;2023-01-23T07:26:39;32.92;;;16.10;;
33824;SDS011;20127;48.962;8.342;2023-01-23T07:29:24;31.13;;;14.20;;
33824;SDS011;20127;48.962;8.342;2023-01-23T07:32:32;34.40;;;16.00;;
33824;SDS011;20127;48.962;8.342;2023-01-23T07:35:55;33.13;;;17.95;;
33824;SDS011;20127;48.962;8.342;2023-01-23T07:39:14;45.05;;;18.92;;
33824;SDS011;20127;48.962;8.342;2023-01-23T07:42:35;44.50;;;20.55;;
33824;SDS011;20127;48.962;8.342;2023-01-23T07:45:46;40.95;;;20.30;;
33824;SDS011;20127;48.962;8.342;2023-01-23T07:48:52;40.80;;;19.85;;
33824;SDS011;20127;48.962;8.342;2023-01-23T07:52:03;48.60;;;19.08;;
33824;SDS011;20127;48.962;8.342;2023-01-23T07:55:14;34.42;;;19.58;;
33824;SDS011;20127;48.962;8.342;2023-01-23T07:58:17;45.25;;;18.60;;
33824;SDS011;20127;48.962;8.342;2023-01-23T08:04:26;52.35;;;18.58;;
33824;SDS011;20127;48.962;8.342;2023-01-23T08:07:29;37.75;;;18.70;;
33824;SDS011;20127;48.962;8.342;2023-01-23T08:10:31;42.05;;;18.92;;
33824;SDS011;20127;48.962;8.342;2023-01-23T08:13:32;36.97;;;18.10;;
33824;SDS011;20127;48.962;8.342;2023-01-23T08:16:34;34.38;;;17.83;;
33824;SDS011;20127;48.962;8.342;2023-01-23T08:19:43;38.50;;;17.75;;
33824;SDS011;20127;48.962;8.342;2023-01-23T08:22:47;54.15;;;26.50;;
33824;SDS011;20127;48.962;8.342;2023-01-23T08:25:51;39.17;;;18.80;;
33824;SDS011;20127;48.962;8.342;2023-01-23T08:28:53;43.45;;;20.83;;
33824;SDS011;20127;48.962;8.342;2023-01-23T08:31:54;46.22;;;20.73;;
33824;SDS011;20127;48.962;8.342;2023-01-23T08:34:56;40.47;;;18.83;;
33824;SDS011;20127;48.962;8.342;2023-01-23T08:38:00;40.75;;;19.05;;
33824;SDS011;20127;48.962;8.342;2023-01-23T08:41:02;33.20;;;16.70;;
33824;SDS011;20127;48.962;8.342;2023-01-23T08:44:04;33.03;;;17.27;;
33824;SDS011;20127;48.962;8.342;2023-01-23T08:47:06;38.45;;;17.98;;
33824;SDS011;20127;48.962;8.342;2023-01-23T08:50:08;35.17;;;17.33;;
33824;SDS011;20127;48.962;8.342;2023-01-23T08:53:12;30.08;;;15.95;;
33824;SDS011;20127;48.962;8.342;2023-01-23T08:56:16;33.75;;;16.67;;
33824;SDS011;20127;48.962;8.342;2023-01-23T08:59:19;31.88;;;15.63;;
33824;SDS011;20127;48.962;8.342;2023-01-23T09:02:20;34.85;;;16.00;;
33824;SDS011;20127;48.962;8.342;2023-01-23T09:05:22;33.95;;;16.90;;
33824;SDS011;20127;48.962;8.342;2023-01-23T09:08:25;45.40;;;20.73;;
33824;SDS011;20127;48.962;8.342;2023-01-23T09:11:26;35.13;;;16.45;;
33824;SDS011;20127;48.962;8.342;2023-01-23T09:14:28;36.83;;;18.30;;
33824;SDS011;20127;48.962;8.342;2023-01-23T09:17:30;32.72;;;15.73;;
33824;SDS011;20127;48.962;8.342;2023-01-23T09:20:32;37.80;;;19.38;;
33824;SDS011;20127;48.962;8.342;2023-01-23T09:23:35;33.67;;;17.70;;
33824;SDS011;20127;48.962;8.342;2023-01-23T09:26:36;31.13;;;16.50;;
33824;SDS011;20127;48.962;8.342;2023-01-23T09:29:38;35.85;;;19.00;;
33824;SDS011;20127;48.962;8.342;2023-01-23T09:32:40;27.13;;;15.75;;
33824;SDS011;20127;48.962;8.342;2023-01-23T09:35:42;31.80;;;16.48;;
33824;SDS011;20127;48.962;8.342;2023-01-23T09:38:47;38.72;;;17.52;;
33824;SDS011;20127;48.962;8.342;2023-01-23T09:41:49;29.00;;;16.33;;
33824;SDS011;20127;48.962;8.342;2023-01-23T09:44:52;34.88;;;17.05;;
33824;SDS011;20127;48.962;8.342;2023-01-23T09:48:03;30.20;;;15.38;;
33824;SDS011;20127;48.962;8.342;2023-01-23T09:51:16;26.45;;;14.85;;
33824;SDS011;20127;48.962;8.342;2023-01-23T09:54:36;34.13;;;18.58;;
33824;SDS011;20127;48.962;8.342;2023-01-23T09:57:44;31.85;;;18.55;;
33824;SDS011;20127;48.962;8.342;2023-01-23T10:00:51;34.35;;;19.48;;
33824;SDS011;20127;48.962;8.342;2023-01-23T10:03:53;45.17;;;27.85;;
33824;SDS011;20127;48.962;8.342;2023-01-23T10:07:00;29.98;;;15.35;;
33824;SDS011;20127;48.962;8.342;2023-01-23T10:13:52;31.38;;;20.23;;
33824;SDS011;20127;48.962;8.342;2023-01-23T10:17:08;34.22;;;17.30;;
33824;SDS011;20127;48.962;8.342;2023-01-23T10:23:40;27.60;;;14.98;;
33824;SDS011;20127;48.962;8.342;2023-01-23T10:26:49;29.70;;;15.80;;
33824;SDS011;20127;48.962;8.342;2023-01-23T10:29:55;22.35;;;14.05;;
33824;SDS011;20127;48.962;8.342;2023-01-23T10:33:00;28.73;;;15.68;;
33824;SDS011;20127;48.962;8.342;2023-01-23T10:36:03;27.42;;;14.20;;
33824;SDS011;20127;48.962;8.342;2023-01-23T10:39:14;29.15;;;13.45;;
33824;SDS011;20127;48.962;8.342;2023-01-23T10:42:21;27.83;;;15.23;;
33824;SDS011;20127;48.962;8.342;2023-01-23T10:45:23;87.47;;;78.15;;
33824;SDS011;20127;48.962;8.342;2023-01-23T10:48:25;23.83;;;15.88;;
33824;SDS011;20127;48.962;8.342;2023-01-23T10:51:30;18.80;;;12.63;;
33824;SDS011;20127;48.962;8.342;2023-01-23T10:54:43;22.70;;;14.00;;
33824;SDS011;20127;48.962;8.342;2023-01-23T10:57:48;18.15;;;12.65;;
33824;SDS011;20127;48.962;8.342;2023-01-23T11:00:54;25.50;;;13.60;;
33824;SDS011;20127;48.962;8.342;2023-01-23T11:03:56;19.88;;;13.55;;
33824;SDS011;20127;48.962;8.342;2023-01-23T11:07:10;18.55;;;11.25;;
33824;SDS011;20127;48.962;8.342;2023-01-23T11:10:15;18.15;;;9.38;;
33824;SDS011;20127;48.962;8.342;2023-01-23T11:13:26;16.08;;;11.05;;
33824;SDS011;20127;48.962;8.342;2023-01-23T11:16:28;23.63;;;14.77;;
33824;SDS011;20127;48.962;8.342;2023-01-23T11:19:31;17.92;;;12.27;;
33824;SDS011;20127;48.962;8.342;2023-01-23T11:22:34;17.33;;;12.10;;
33824;SDS011;20127;48.962;8.342;2023-01-23T11:25:38;25.60;;;21.77;;
33824;SDS011;20127;48.962;8.342;2023-01-23T11:28:47;17.40;;;10.63;;
33824;SDS011;20127;48.962;8.342;2023-01-23T11:31:51;20.05;;;12.60;;
33824;SDS011;20127;48.962;8.342;2023-01-23T11:35:02;21.73;;;14.27;;
33824;SDS011;20127;48.962;8.342;2023-01-23T11:38:12;15.55;;;11.20;;
33824;SDS011;20127;48.962;8.342;2023-01-23T11:41:19;12.85;;;9.38;;
33824;SDS011;20127;48.962;8.342;2023-01-23T11:44:28;16.90;;;11.55;;
33824;SDS011;20127;48.962;8.342;2023-01-23T11:47:39;16.75;;;9.77;;
33824;SDS011;20127;48.962;8.342;2023-01-23T11:50:59;16.08;;;10.88;;
33824;SDS011;20127;48.962;8.342;2023-01-23T11:54:13;20.15;;;11.52;;
33824;SDS011;20127;48.962;8.342;2023-01-23T11:57:28;15.32;;;9.45;;
33824;SDS011;20127;48.962;8.342;2023-01-23T12:00:41;14.73;;;10.65;;
33824;SDS011;20127;48.962;8.342;2023-01-23T12:07:24;19.38;;;10.68;;
33824;SDS011;20127;48.962;8.342;2023-01-23T12:10:28;22.08;;;13.43;;
33824;SDS011;20127;48.962;8.342;2023-01-23T12:17:09;19.48;;;12.18;;
33824;SDS011;20127;48.962;8.342;2023-01-23T12:20:21;15.43;;;9.65;;
33824;SDS011;20127;48.962;8.342;2023-01-23T12:23:40;14.25;;;8.30;;
33824;SDS011;20127;48.962;8.342;2023-01-23T12:26:56;13.35;;;9.05;;
33824;SDS011;20127;48.962;8.342;2023-01-23T12:30:11;14.82;;;10.32;;
33824;SDS011;20127;48.962;8.342;2023-01-23T12:33:53;15.90;;;9.48;;
33824;SDS011;20127;48.962;8.342;2023-01-23T12:40:40;15.05;;;9.40;;
33824;SDS011;20127;48.962;8.342;2023-01-23T12:43:46;20.20;;;10.00;;
33824;SDS011;20127;48.962;8.342;2023-01-23T12:46:55;15.98;;;11.25;;
33824;SDS011;20127;48.962;8.342;2023-01-23T12:50:04;15.13;;;7.50;;
33824;SDS011;20127;48.962;8.342;2023-01-23T12:53:16;16.73;;;11.00;;
33824;SDS011;20127;48.962;8.342;2023-01-23T12:56:22;15.82;;;10.55;;
33824;SDS011;20127;48.962;8.342;2023-01-23T12:59:29;16.67;;;11.48;;
33824;SDS011;20127;48.962;8.342;2023-01-23T13:02:39;17.95;;;10.43;;
33824;SDS011;20127;48.962;8.342;2023-01-23T13:05:52;16.05;;;10.55;;
33824;SDS011;20127;48.962;8.342;2023-01-23T13:09:05;21.15;;;12.60;;
33824;SDS011;20127;48.962;8.342;2023-01-23T13:12:15;21.45;;;12.63;;
33824;SDS011;20127;48.962;8.342;2023-01-23T13:15:21;19.33;;;10.95;;
33824;SDS011;20127;48.962;8.342;2023-01-23T13:18:31;13.70;;;10.02;;
33824;SDS011;20127;48.962;8.342;2023-01-23T13:22:02;15.88;;;9.73;;
33824;SDS011;20127;48.962;8.342;2023-01-23T13:25:11;19.45;;;12.23;;
33824;SDS011;20127;48.962;8.342;2023-01-23T13:28:29;15.52;;;9.57;;
33824;SDS011;20127;48.962;8.342;2023-01-23T13:31:36;18.58;;;11.15;;
33824;SDS011;20127;48.962;8.342;2023-01-23T13:34:40;12.32;;;8.00;;
33824;SDS011;20127;48.962;8.342;2023-01-23T13:48:33;22.88;;;17.55;;
33824;SDS011;20127;48.962;8.342;2023-01-23T13:52:05;17.38;;;11.35;;
33824;SDS011;20127;48.962;8.342;2023-01-23T13:55:32;18.88;;;10.48;;
33824;SDS011;20127;48.962;8.342;2023-01-23T13:58:57;17.27;;;11.20;;
33824;SDS011;20127;48.962;8.342;2023-01-23T14:02:01;13.10;;;8.82;;
33824;SDS011;20127;48.962;8.342;2023-01-23T14:05:35;14.95;;;8.93;;
33824;SDS011;20127;48.962;8.342;2023-01-23T14:08:44;12.65;;;9.23;;
33824;SDS011;20127;48.962;8.342;2023-01-23T14:11:53;12.68;;;8.13;;
33824;SDS011;20127;48.962;8.342;2023-01-23T14:14:57;13.05;;;7.88;;
33824;SDS011;20127;48.962;8.342;2023-01-23T14:21:34;87.40;;;52.17;;
33824;SDS011;20127;48.962;8.342;2023-01-23T14:24:51;15.95;;;9.60;;
33824;SDS011;20127;48.962;8.342;2023-01-23T14:28:02;17.45;;;10.95;;
33824;SDS011;20127;48.962;8.342;2023-01-23T14:31:05;16.33;;;11.15;;
33824;SDS011;20127;48.962;8.342;2023-01-23T14:34:21;16.25;;;9.35;;
33824;SDS011;20127;48.962;8.342;2023-01-23T14:37:23;16.08;;;9.68;;
33824;SDS011;20127;48.962;8.342;2023-01-23T14:40:27;14.50;;;10.30;;
33824;SDS011;20127;48.962;8.342;2023-01-23T14:43:30;16.13;;;9.60;;
33824;SDS011;20127;48.962;8.342;2023-01-23T14:46:34;15.15;;;9.02;;
33824;SDS011;20127;48.962;8.342;2023-01-23T14:49:39;14.80;;;11.35;;
33824;SDS011;20127;48.962;8.342;2023-01-23T14:52:41;15.20;;;10.70;;
33824;SDS011;20127;48.962;8.342;2023-01-23T14:55:44;17.95;;;9.88;;
33824;SDS011;20127;48.962;8.342;2023-01-23T14:58:50;15.55;;;9.15;;
33824;SDS011;20127;48.962;8.342;2023-01-23T15:01:52;15.45;;;10.25;;
33824;SDS011;20127;48.962;8.342;2023-01-23T15:05:07;18.50;;;9.82;;
33824;SDS011;20127;48.962;8.342;2023-01-23T15:08:16;12.70;;;6.93;;
33824;SDS011;20127;48.962;8.342;2023-01-23T15:11:24;13.60;;;10.07;;
33824;SDS011;20127;48.962;8.342;2023-01-23T15:14:29;15.63;;;9.55;;
33824;SDS011;20127;48.962;8.342;2023-01-23T15:17:36;11.73;;;8.52;;
33824;SDS011;20127;48.962;8.342;2023-01-23T15:20:38;17.35;;;10.32;;
33824;SDS011;20127;48.962;8.342;2023-01-23T15:27:56;12.00;;;8.10;;
33824;SDS011;20127;48.962;8.342;2023-01-23T15:31:40;14.77;;;10.25;;
33824;SDS011;20127;48.962;8.342;2023-01-23T15:39:25;13.02;;;8.88;;
33824;SDS011;20127;48.962;8.342;2023-01-23T15:43:10;12.80;;;8.43;;
33824;SDS011;20127;48.962;8.342;2023-01-23T16:02:22;13.55;;;8.50;;
33824;SDS011;20127;48.962;8.342;2023-01-23T16:05:24;14.77;;;8.27;;
33824;SDS011;20127;48.962;8.342;2023-01-23T16:08:28;14.30;;;10.20;;
33824;SDS011;20127;48.962;8.342;2023-01-23T16:11:31;11.30;;;8.52;;
33824;SDS011;20127;48.962;8.342;2023-01-23T16:14:34;13.73;;;10.18;;
33824;SDS011;20127;48.962;8.342;2023-01-23T16:17:37;12.45;;;6.53;;
33824;SDS011;20127;48.962;8.342;2023-01-23T16:20:40;14.48;;;11.68;;
33824;SDS011;20127;48.962;8.342;2023-01-23T16:23:43;16.58;;;11.40;;
33824;SDS011;20127;48.962;8.342;2023-01-23T16:26:47;12.43;;;9.90;;
33824;SDS011;20127;48.962;8.342;2023-01-23T16:29:49;13.93;;;9.68;;
33824;SDS011;20127;48.962;8.342;2023-01-23T16:32:53;15.50;;;10.88;;
33824;SDS011;20127;48.962;8.342;2023-01-23T16:35:55;12.65;;;8.88;;
33824;SDS011;20127;48.962;8.342;2023-01-23T16:38:57;18.88;;;12.68;;
33824;SDS011;20127;48.962;8.342;2023-01-23T16:41:59;13.35;;;9.38;;
33824;SDS011;20127;48.962;8.342;2023-01-23T16:45:11;17.30;;;10.57;;
33824;SDS011;20127;48.962;8.342;2023-01-23T16:48:15;12.23;;;9.23;;
33824;SDS011;20127;48.962;8.342;2023-01-23T16:51:17;15.15;;;10.85;;
33824;SDS011;20127;48.962;8.342;2023-01-23T16:54:21;17.67;;;10.52;;
33824;SDS011;20127;48.962;8.342;2023-01-23T16:57:23;15.15;;;10.90;;
33824;SDS011;20127;48.962;8.342;2023-01-23T17:00:25;21.45;;;16.80;;
33824;SDS011;20127;48.962;8.342;2023-01-23T17:03:31;22.23;;;11.35;;
33824;SDS011;20127;48.962;8.342;2023-01-23T17:06:34;14.32;;;10.68;;
33824;SDS011;20127;48.962;8.342;2023-01-23T17:09:36;16.02;;;11.15;;
33824;SDS011;20127;48.962;8.342;2023-01-23T17:12:38;20.55;;;11.90;;
33824;SDS011;20127;48.962;8.342;2023-01-23T17:15:39;16.48;;;11.35;;
33824;SDS011;20127;48.962;8.342;2023-01-23T17:18:43;13.82;;;9.55;;
33824;SDS011;20127;48.962;8.342;2023-01-23T17:21:44;16.02;;;9.48;;
33824;SDS011;20127;48.962;8.342;2023-01-23T17:24:46;18.88;;;11.80;;
33824;SDS011;20127;48.962;8.342;2023-01-23T17:27:48;15.65;;;9.88;;
33824;SDS011;20127;48.962;8.342;2023-01-23T17:30:51;14.90;;;10.02;;
33824;SDS011;20127;48.962;8.342;2023-01-23T17:33:55;14.77;;;10.65;;
33824;SDS011;20127;48.962;8.342;2023-01-23T17:36:57;15.90;;;9.95;;
33824;SDS011;20127;48.962;8.342;2023-01-23T17:39:59;15.45;;;10.13;;
33824;SDS011;20127;48.962;8.342;2023-01-23T17:43:01;14.77;;;9.60;;
33824;SDS011;20127;48.962;8.342;2023-01-23T17:46:03;14.23;;;10.35;;
33824;SDS011;20127;48.962;8.342;2023-01-23T17:49:12;14.65;;;10.43;;
33824;SDS011;20127;48.962;8.342;2023-01-23T17:52:26;15.23;;;10.80;;
33824;SDS011;20127;48.962;8.342;2023-01-23T17:55:30;12.77;;;9.52;;
33824;SDS011;20127;48.962;8.342;2023-01-23T17:58:31;15.80;;;11.30;;
33824;SDS011;20127;48.962;8.342;2023-01-23T18:01:33;16.02;;;10.60;;
33824;SDS011;20127;48.962;8.342;2023-01-23T18:04:36;13.95;;;9.07;;
33824;SDS011;20127;48.962;8.342;2023-01-23T18:07:39;20.25;;;12.75;;
33824;SDS011;20127;48.962;8.342;2023-01-23T18:10:41;21.55;;;14.05;;
33824;SDS011;20127;48.962;8.342;2023-01-23T18:13:49;15.68;;;10.15;;
33824;SDS011;20127;48.962;8.342;2023-01-23T18:17:01;17.13;;;11.90;;
33824;SDS011;20127;48.962;8.342;2023-01-23T18:20:16;12.60;;;9.18;;
33824;SDS011;20127;48.962;8.342;2023-01-23T18:23:19;15.05;;;9.40;;
33824;SDS011;20127;48.962;8.342;2023-01-23T18:26:31;12.18;;;9.43;;
33824;SDS011;20127;48.962;8.342;2023-01-23T18:29:42;11.40;;;8.20;;
33824;SDS011;20127;48.962;8.342;2023-01-23T18:32:58;14.32;;;9.10;;
33824;SDS011;20127;48.962;8.342;2023-01-23T18:39:30;14.82;;;9.68;;
33824;SDS011;20127;48.962;8.342;2023-01-23T18:42:40;16.52;;;8.57;;
33824;SDS011;20127;48.962;8.342;2023-01-23T18:45:48;13.38;;;8.73;;
33824;SDS011;20127;48.962;8.342;2023-01-23T18:48:50;10.00;;;7.53;;
33824;SDS011;20127;48.962;8.342;2023-01-23T18:51:56;44.10;;;24.77;;
33824;SDS011;20127;48.962;8.342;2023-01-23T18:55:03;13.13;;;10.77;;
33824;SDS011;20127;48.962;8.342;2023-01-23T18:58:17;27.38;;;24.80;;
33824;SDS011;20127;48.962;8.342;2023-01-23T19:01:33;12.45;;;9.45;;
33824;SDS011;20127;48.962;8.342;2023-01-23T19:04:42;11.75;;;7.50;;
33824;SDS011;20127;48.962;8.342;2023-01-23T19:07:48;11.23;;;7.40;;
33824;SDS011;20127;48.962;8.342;2023-01-23T19:10:50;11.05;;;7.90;;
33824;SDS011;20127;48.962;8.342;2023-01-23T19:13:55;15.00;;;12.65;;
33824;SDS011;20127;48.962;8.342;2023-01-23T19:17:07;14.05;;;11.00;;